createdAt,value
2017-11-24T00:00:54.093Z,1.40
2017-11-24T00:01:55.381Z,1.25
2017-11-24T00:02:56.691Z,1.30
2017-11-24T00:03:57.980Z,1.42
2017-11-24T00:04:59.293Z,1.50
2017-11-24T00:06:00.888Z,1.37
2017-11-24T00:07:02.249Z,1.50
2017-11-24T00:08:03.572Z,1.20
2017-11-24T00:09:04.896Z,1.20
2017-11-24T00:10:06.216Z,1.33
2017-11-24T00:11:07.755Z,1.33
2017-11-24T00:12:09.092Z,1.30
2017-11-24T00:13:10.400Z,1.42
2017-11-24T00:14:11.720Z,1.60
2017-11-24T00:15:13.025Z,1.30
2017-11-24T00:16:14.687Z,1.23
2017-11-24T00:17:16.045Z,1.35
2017-11-24T00:18:17.384Z,1.20
2017-11-24T00:19:18.721Z,1.33
2017-11-24T00:20:20.026Z,1.52
2017-11-24T00:21:21.635Z,1.33
2017-11-24T00:22:23.677Z,1.23
2017-11-24T00:23:24.997Z,1.20
2017-11-24T00:24:26.324Z,1.50
2017-11-24T00:25:27.647Z,1.40
2017-11-24T00:26:29.288Z,1.35
2017-11-24T00:27:30.578Z,1.23
2017-11-24T00:28:31.918Z,1.27
2017-11-24T00:29:33.968Z,1.50
2017-11-24T00:30:35.308Z,1.30
2017-11-24T00:31:36.929Z,1.37
2017-11-24T00:32:38.236Z,1.20
2017-11-24T00:33:39.592Z,1.20
2017-11-24T00:34:40.916Z,1.30
2017-11-24T00:35:42.207Z,1.40
2017-11-24T00:36:43.909Z,1.23
2017-11-24T00:37:45.243Z,1.30
2017-11-24T00:38:46.571Z,1.60
2017-11-24T00:39:47.880Z,1.30
2017-11-24T00:40:49.908Z,1.43
2017-11-24T00:41:51.550Z,1.37
2017-11-24T00:42:52.841Z,1.30
2017-11-24T00:43:54.140Z,1.73
2017-11-24T00:44:55.450Z,1.20
2017-11-24T00:45:56.747Z,1.25
2017-11-24T00:46:58.105Z,1.48
2017-11-24T00:47:59.424Z,1.30
2017-11-24T00:49:00.746Z,1.15
2017-11-24T00:50:02.824Z,1.20
2017-11-24T00:51:04.185Z,1.10
2017-11-24T00:52:05.990Z,1.50
2017-11-24T00:53:08.049Z,1.60
2017-11-24T00:54:10.097Z,1.27
2017-11-24T00:55:12.142Z,1.37
2017-11-24T00:56:14.186Z,1.20
2017-11-24T00:57:15.991Z,1.40
2017-11-24T00:58:17.329Z,1.30
2017-11-24T00:59:18.653Z,1.37
2017-11-24T01:00:20.006Z,1.20
2017-11-24T01:01:21.324Z,1.30
2017-11-24T01:02:22.929Z,1.37
2017-11-24T01:03:24.233Z,1.20
2017-11-24T01:04:25.531Z,1.13
2017-11-24T01:05:27.590Z,1.12
2017-11-24T01:06:28.898Z,1.00
2017-11-24T01:07:30.505Z,1.23
2017-11-24T01:08:31.840Z,1.40
2017-11-24T01:09:33.150Z,1.30
2017-11-24T01:10:34.479Z,1.63
2017-11-24T01:11:36.549Z,1.30
2017-11-24T01:12:38.240Z,1.50
2017-11-24T01:13:39.620Z,1.30
2017-11-24T01:14:41.672Z,1.40
2017-11-24T01:15:43.715Z,1.53
2017-11-24T01:16:45.015Z,1.30
2017-11-24T01:17:46.745Z,1.27
2017-11-24T01:18:48.032Z,1.40
2017-11-24T01:19:49.354Z,1.43
2017-11-24T01:20:50.659Z,1.73
2017-11-24T01:21:51.962Z,1.50
2017-11-24T01:22:54.303Z,1.40
2017-11-24T01:23:55.619Z,1.60
2017-11-24T01:24:56.932Z,1.50
2017-11-24T01:25:58.221Z,1.50
2017-11-24T01:26:59.553Z,1.70
2017-11-24T01:28:01.155Z,1.40
2017-11-24T01:29:02.461Z,1.63
2017-11-24T01:30:04.534Z,1.50
2017-11-24T01:31:05.842Z,1.50
2017-11-24T01:32:07.915Z,1.65
2017-11-24T01:33:09.516Z,1.30
2017-11-24T01:34:10.861Z,1.70
2017-11-24T01:35:12.207Z,1.27
2017-11-24T01:36:13.516Z,1.40
2017-11-24T01:37:14.840Z,1.60
2017-11-24T01:38:16.593Z,1.60
2017-11-24T01:39:17.912Z,1.50
2017-11-24T01:40:19.239Z,1.53
2017-11-24T01:41:20.572Z,1.60
2017-11-24T01:42:22.631Z,1.30
2017-11-24T01:43:23.985Z,1.30
2017-11-24T01:44:25.338Z,1.50
2017-11-24T01:45:26.674Z,1.50
2017-11-24T01:46:28.001Z,1.47
2017-11-24T01:47:29.405Z,1.70
2017-11-24T01:48:30.991Z,1.60
2017-11-24T01:49:32.299Z,1.60
2017-11-24T01:50:34.340Z,1.50
2017-11-24T01:51:36.405Z,1.50
2017-11-24T01:52:38.521Z,1.60
2017-11-24T01:53:40.174Z,1.40
2017-11-24T01:54:41.500Z,1.30
2017-11-24T01:55:42.821Z,1.40
2017-11-24T01:56:44.151Z,1.70
2017-11-24T01:57:45.498Z,2.07
2017-11-24T01:58:46.831Z,1.57
2017-11-24T01:59:48.164Z,1.60
2017-11-24T02:00:49.542Z,1.40
2017-11-24T02:01:50.879Z,1.53
2017-11-24T02:02:52.238Z,1.40
2017-11-24T02:03:53.862Z,1.43
2017-11-24T02:04:55.205Z,1.57
2017-11-24T02:05:56.541Z,1.30
2017-11-24T02:06:57.900Z,1.43
2017-11-24T02:07:59.224Z,1.47
2017-11-24T02:09:00.945Z,1.40
2017-11-24T02:10:02.281Z,1.50
2017-11-24T02:11:03.628Z,1.37
2017-11-24T02:12:04.976Z,1.40
2017-11-24T02:13:06.329Z,1.80
2017-11-24T02:14:08.048Z,1.70
2017-11-24T02:15:09.429Z,1.43
2017-11-24T02:16:10.754Z,1.60
2017-11-24T02:17:12.110Z,1.70
2017-11-24T02:18:14.193Z,1.33
2017-11-24T02:19:15.874Z,1.50
2017-11-24T02:20:17.208Z,1.50
2017-11-24T02:21:18.586Z,1.37
2017-11-24T02:22:19.929Z,1.77
2017-11-24T02:23:22.052Z,1.43
2017-11-24T02:24:23.706Z,1.20
2017-11-24T02:25:25.046Z,1.47
2017-11-24T02:26:26.411Z,1.30
2017-11-24T02:27:28.501Z,1.30
2017-11-24T02:28:29.855Z,1.30
2017-11-24T02:29:31.485Z,1.40
2017-11-24T02:30:32.857Z,1.70
2017-11-24T02:31:34.229Z,1.47
2017-11-24T02:32:36.329Z,1.40
2017-11-24T02:33:37.669Z,1.30
2017-11-24T02:34:39.412Z,1.40
2017-11-24T02:35:40.748Z,1.47
2017-11-24T02:36:42.081Z,1.40
2017-11-24T02:37:43.437Z,1.33
2017-11-24T02:38:44.781Z,1.60
2017-11-24T02:39:46.521Z,1.40
2017-11-24T02:40:47.865Z,1.17
2017-11-24T02:41:49.216Z,1.53
2017-11-24T02:42:51.291Z,1.47
2017-11-24T02:43:52.632Z,1.33
2017-11-24T02:44:54.260Z,1.10
2017-11-24T02:45:55.603Z,1.60
2017-11-24T02:46:56.949Z,1.43
2017-11-24T02:47:58.265Z,1.50
2017-11-24T02:48:59.623Z,1.10
2017-11-24T02:50:01.333Z,1.27
2017-11-24T02:51:02.698Z,1.30
2017-11-24T02:52:04.059Z,1.40
2017-11-24T02:53:05.497Z,1.40
2017-11-24T02:54:06.838Z,1.43
2017-11-24T02:55:08.239Z,1.33
2017-11-24T02:56:09.579Z,1.33
2017-11-24T02:57:10.937Z,1.27
2017-11-24T02:58:12.281Z,1.30
2017-11-24T02:59:13.626Z,1.40
2017-11-24T03:00:15.226Z,1.10
2017-11-24T03:01:17.520Z,1.30
2017-11-24T03:02:18.861Z,1.30
2017-11-24T03:03:20.201Z,1.20
2017-11-24T03:04:21.529Z,1.17
2017-11-24T03:05:23.967Z,1.20
2017-11-24T03:06:25.293Z,1.40
2017-11-24T03:07:26.664Z,1.13
2017-11-24T03:08:27.977Z,1.27
2017-11-24T03:09:29.306Z,1.20
2017-11-24T03:10:30.976Z,1.63
2017-11-24T03:11:32.299Z,1.10
2017-11-24T03:12:33.653Z,1.10
2017-11-24T03:13:34.981Z,1.30
2017-11-24T03:14:36.294Z,1.33
2017-11-24T03:15:37.981Z,1.33
2017-11-24T03:16:39.285Z,1.40
2017-11-24T03:17:40.618Z,1.23
2017-11-24T03:18:41.967Z,1.40
2017-11-24T03:19:43.292Z,1.20
2017-11-24T03:20:44.865Z,1.40
2017-11-24T03:21:46.181Z,1.43
2017-11-24T03:22:47.532Z,1.50
2017-11-24T03:23:48.845Z,1.37
2017-11-24T03:24:50.170Z,1.50
2017-11-24T03:25:52.560Z,1.30
2017-11-24T03:26:53.910Z,1.50
2017-11-24T03:27:55.249Z,1.40
2017-11-24T03:28:56.591Z,1.60
2017-11-24T03:29:57.953Z,1.37
2017-11-24T03:30:59.589Z,1.67
2017-11-24T03:32:01.689Z,1.40
2017-11-24T03:33:03.750Z,1.60
2017-11-24T03:34:05.825Z,1.40
2017-11-24T03:35:07.161Z,1.47
2017-11-24T03:36:08.765Z,1.70
2017-11-24T03:37:10.087Z,1.37
2017-11-24T03:38:11.421Z,1.53
2017-11-24T03:39:12.785Z,1.60
2017-11-24T03:40:14.125Z,1.33
2017-11-24T03:41:15.729Z,1.40
2017-11-24T03:42:17.080Z,1.30
2017-11-24T03:43:18.417Z,1.50
2017-11-24T03:44:20.761Z,1.23
2017-11-24T03:45:22.097Z,1.43
2017-11-24T03:46:23.683Z,1.40
2017-11-24T03:47:25.036Z,1.40
2017-11-24T03:48:27.160Z,1.73
2017-11-24T03:49:28.500Z,1.60
2017-11-24T03:50:29.849Z,1.63
2017-11-24T03:51:31.516Z,1.40
2017-11-24T03:52:33.669Z,1.23
2017-11-24T03:53:35.813Z,1.57
2017-11-24T03:54:37.150Z,1.40
2017-11-24T03:55:38.472Z,1.30
2017-11-24T03:56:40.090Z,1.27
2017-11-24T03:57:41.421Z,1.47
2017-11-24T03:58:42.732Z,1.50
2017-11-24T03:59:44.800Z,1.37
2017-11-24T04:00:46.874Z,1.33
2017-11-24T04:01:48.634Z,1.50
2017-11-24T04:02:49.954Z,1.40
2017-11-24T04:03:51.310Z,1.30
2017-11-24T04:04:52.629Z,1.43
2017-11-24T04:05:53.948Z,1.27
2017-11-24T04:06:56.356Z,1.20
2017-11-24T04:07:57.693Z,1.30
2017-11-24T04:08:59.028Z,1.30
2017-11-24T04:10:00.358Z,1.60
2017-11-24T04:11:01.709Z,1.40
2017-11-24T04:12:03.379Z,1.50
2017-11-24T04:13:04.726Z,1.37
2017-11-24T04:14:06.144Z,1.40
2017-11-24T04:15:07.521Z,1.30
2017-11-24T04:16:09.633Z,1.80
2017-11-24T04:17:12.311Z,1.40
2017-11-24T04:18:13.710Z,1.50
2017-11-24T04:19:15.085Z,1.37
2017-11-24T04:20:16.451Z,1.40
2017-11-24T04:21:17.848Z,1.60
2017-11-24T04:22:19.527Z,1.37
2017-11-24T04:23:20.878Z,1.70
2017-11-24T04:24:22.272Z,1.60
2017-11-24T04:25:23.631Z,1.35
2017-11-24T04:26:24.961Z,1.70
2017-11-24T04:27:27.301Z,1.47
2017-11-24T04:28:28.625Z,1.90
2017-11-24T04:29:29.988Z,1.48
2017-11-24T04:30:31.354Z,1.60
2017-11-24T04:31:32.718Z,1.40
2017-11-24T04:32:34.843Z,1.30
2017-11-24T04:33:36.199Z,1.43
2017-11-24T04:34:37.585Z,1.42
2017-11-24T04:35:38.925Z,1.57
2017-11-24T04:36:40.249Z,1.47
2017-11-24T04:37:42.555Z,1.10
2017-11-24T04:38:43.961Z,1.30
2017-11-24T04:39:45.634Z,1.70
2017-11-24T04:40:46.996Z,1.40
2017-11-24T04:41:49.320Z,1.30
2017-11-24T04:42:50.977Z,1.30
2017-11-24T04:43:52.356Z,1.50
2017-11-24T04:44:53.667Z,1.50
2017-11-24T04:45:55.029Z,1.50
2017-11-24T04:46:56.373Z,1.50
2017-11-24T04:47:58.079Z,1.93
2017-11-24T04:48:59.429Z,2.60
2017-11-24T04:50:00.767Z,3.07
2017-11-24T04:51:03.689Z,2.90
2017-11-24T04:52:05.763Z,2.40
2017-11-24T04:53:11.653Z,2.37
2017-11-24T04:54:13.012Z,1.93
2017-11-24T04:55:14.351Z,1.80
2017-11-24T04:56:16.550Z,1.50
2017-11-24T04:57:18.091Z,1.50
2017-11-24T04:58:19.723Z,1.50
2017-11-24T04:59:21.135Z,1.63
2017-11-24T05:00:23.596Z,1.50
2017-11-24T05:01:25.830Z,1.30
2017-11-24T05:02:27.226Z,1.60
2017-11-24T05:03:28.736Z,1.27
2017-11-24T05:04:30.078Z,1.30
2017-11-24T05:05:31.447Z,1.27
2017-11-24T05:06:32.782Z,1.50
2017-11-24T05:07:34.126Z,1.40
2017-11-24T05:08:35.470Z,1.40
2017-11-24T05:09:36.826Z,1.37
2017-11-24T05:10:38.167Z,1.10
2017-11-24T05:11:39.513Z,1.37
2017-11-24T05:12:40.882Z,1.10
2017-11-24T05:13:42.521Z,1.30
2017-11-24T05:14:43.869Z,1.50
2017-11-24T05:15:45.240Z,1.40
2017-11-24T05:16:46.583Z,1.35
2017-11-24T05:17:47.922Z,1.50
2017-11-24T05:18:49.277Z,1.20
2017-11-24T05:19:50.589Z,1.37
2017-11-24T05:20:51.918Z,1.23
2017-11-24T05:21:54.013Z,2.10
2017-11-24T05:22:55.359Z,1.42
2017-11-24T05:23:57.110Z,1.33
2017-11-24T05:24:59.243Z,2.77
2017-11-24T05:26:00.628Z,2.67
2017-11-24T05:27:01.976Z,2.20
2017-11-24T05:28:03.366Z,2.00
2017-11-24T05:29:04.973Z,1.90
2017-11-24T05:30:07.042Z,1.93
2017-11-24T05:31:09.109Z,1.87
2017-11-24T05:32:10.433Z,2.23
2017-11-24T05:33:11.794Z,2.10
2017-11-24T05:34:13.433Z,1.80
2017-11-24T05:35:14.789Z,2.00
2017-11-24T05:36:16.122Z,1.93
2017-11-24T05:37:17.461Z,1.77
2017-11-24T05:38:18.780Z,1.60
2017-11-24T05:39:20.405Z,2.07
2017-11-24T05:40:22.460Z,2.77
2017-11-24T05:41:24.597Z,1.90
2017-11-24T05:42:25.912Z,1.97
2017-11-24T05:43:27.270Z,2.07
2017-11-24T05:44:28.648Z,2.10
2017-11-24T05:45:29.987Z,2.20
2017-11-24T05:46:31.298Z,2.27
2017-11-24T05:47:32.625Z,1.90
2017-11-24T05:48:33.964Z,1.70
2017-11-24T05:49:35.337Z,1.90
2017-11-24T05:50:36.678Z,2.13
2017-11-24T05:51:38.009Z,2.00
2017-11-24T05:52:40.090Z,1.63
2017-11-24T05:53:41.426Z,1.60
2017-11-24T05:54:43.392Z,1.57
2017-11-24T05:55:44.755Z,1.83
2017-11-24T05:56:46.126Z,1.70
2017-11-24T05:57:48.225Z,1.87
2017-11-24T05:58:49.561Z,1.47
2017-11-24T05:59:51.421Z,1.50
2017-11-24T06:00:52.750Z,2.10
2017-11-24T06:01:54.060Z,2.10
2017-11-24T06:02:55.404Z,1.87
2017-11-24T06:03:56.736Z,2.10
2017-11-24T06:04:58.110Z,2.30
2017-11-24T06:05:59.434Z,2.90
2017-11-24T06:07:00.831Z,3.20
2017-11-24T06:08:02.223Z,3.00
2017-11-24T06:09:03.929Z,3.10
2017-11-24T06:10:06.334Z,3.20
2017-11-24T06:11:07.704Z,3.07
2017-11-24T06:12:09.040Z,2.90
2017-11-24T06:13:10.397Z,3.00
2017-11-24T06:14:12.505Z,3.50
2017-11-24T06:15:14.253Z,3.30
2017-11-24T06:16:15.613Z,3.57
2017-11-24T06:17:16.995Z,3.30
2017-11-24T06:18:19.094Z,3.10
2017-11-24T06:19:20.412Z,3.63
2017-11-24T06:20:21.771Z,3.20
2017-11-24T06:21:23.129Z,2.93
2017-11-24T06:22:24.483Z,3.20
2017-11-24T06:23:25.848Z,3.30
2017-11-24T06:24:27.958Z,2.80
2017-11-24T06:25:29.585Z,2.93
2017-11-24T06:26:30.898Z,3.10
2017-11-24T06:27:32.215Z,3.80
2017-11-24T06:28:34.264Z,5.10
2017-11-24T06:29:35.578Z,5.20
2017-11-24T06:30:37.200Z,5.13
2017-11-24T06:31:38.514Z,3.43
2017-11-24T06:32:39.840Z,4.20
2017-11-24T06:33:41.166Z,3.40
2017-11-24T06:34:43.221Z,4.70
2017-11-24T06:35:44.582Z,4.20
2017-11-24T06:36:45.930Z,4.63
2017-11-24T06:37:47.241Z,4.07
2017-11-24T06:38:48.575Z,3.73
2017-11-24T06:39:49.876Z,3.93
2017-11-24T06:40:51.510Z,4.03
2017-11-24T06:41:52.816Z,4.10
2017-11-24T06:42:54.129Z,4.57
2017-11-24T06:43:56.185Z,4.10
2017-11-24T06:44:58.275Z,4.03
2017-11-24T06:45:59.924Z,3.87
2017-11-24T06:47:01.236Z,3.53
2017-11-24T06:48:03.272Z,3.37
2017-11-24T06:49:04.577Z,3.90
2017-11-24T06:50:05.955Z,3.23
2017-11-24T06:51:08.341Z,3.90
2017-11-24T06:52:09.663Z,3.50
2017-11-24T06:53:11.741Z,3.43
2017-11-24T06:54:13.073Z,3.00
2017-11-24T06:55:15.159Z,3.23
2017-11-24T06:56:17.506Z,3.23
2017-11-24T06:57:18.821Z,4.07
2017-11-24T06:58:20.137Z,4.10
2017-11-24T06:59:21.505Z,4.80
2017-11-24T07:00:22.880Z,5.30
2017-11-24T07:01:24.286Z,5.03
2017-11-24T07:02:25.655Z,4.70
2017-11-24T07:03:27.059Z,4.70
2017-11-24T07:04:28.456Z,4.77
2017-11-24T07:05:29.825Z,4.17
2017-11-24T07:06:32.251Z,4.57
2017-11-24T07:07:33.633Z,4.70
2017-11-24T07:08:35.706Z,4.57
2017-11-24T07:09:37.076Z,4.30
2017-11-24T07:10:38.449Z,4.40
2017-11-24T07:11:40.119Z,4.53
2017-11-24T07:12:41.524Z,3.80
2017-11-24T07:13:42.866Z,4.47
2017-11-24T07:14:44.255Z,3.80
2017-11-24T07:16:53.926Z,3.60
2017-11-24T07:17:56.072Z,3.50
2017-11-24T07:18:57.448Z,4.00
2017-11-24T07:19:58.880Z,3.90
2017-11-24T07:21:00.990Z,3.80
2017-11-24T07:22:02.654Z,3.80
2017-11-24T07:23:04.022Z,4.20
2017-11-24T07:24:05.357Z,3.40
2017-11-24T07:25:06.696Z,3.07
2017-11-24T07:26:08.018Z,3.20
2017-11-24T07:27:09.717Z,2.60
2017-11-24T07:28:11.041Z,2.33
2017-11-24T07:29:13.152Z,2.40
2017-11-24T07:30:14.485Z,2.23
2017-11-24T07:31:16.564Z,2.23
2017-11-24T07:32:17.986Z,2.07
2017-11-24T07:33:19.301Z,2.10
2017-11-24T07:34:20.645Z,2.30
2017-11-24T07:35:21.960Z,2.27
2017-11-24T07:36:23.314Z,2.10
2017-11-24T07:37:24.952Z,2.00
2017-11-24T07:38:26.270Z,1.97
2017-11-24T07:39:28.406Z,1.70
2017-11-24T07:40:29.771Z,2.10
2017-11-24T07:41:31.112Z,2.03
2017-11-24T07:42:33.226Z,1.90
2017-11-24T07:43:34.588Z,2.30
2017-11-24T07:44:35.928Z,2.65
2017-11-24T07:45:38.001Z,3.15
2017-11-24T07:46:39.370Z,3.47
2017-11-24T07:47:41.029Z,3.72
2017-11-24T07:48:49.456Z,4.10
2017-11-24T07:49:50.791Z,4.05
2017-11-24T07:50:52.121Z,3.78
2017-11-24T07:51:53.461Z,3.03
2017-11-24T07:52:54.850Z,3.08
2017-11-24T07:53:56.162Z,3.00
2017-11-24T07:54:58.246Z,2.60
2017-11-24T07:55:59.631Z,2.15
2017-11-24T07:57:00.983Z,1.90
2017-11-24T07:58:02.705Z,1.55
2017-11-24T07:59:04.073Z,1.23
2017-11-24T08:00:05.432Z,1.50
2017-11-24T08:01:07.491Z,1.48
2017-11-24T08:02:08.849Z,1.85
2017-11-24T08:03:10.251Z,1.40
2017-11-24T08:04:11.590Z,1.80
2017-11-24T08:05:12.936Z,1.40
2017-11-24T08:06:15.050Z,1.40
2017-11-24T08:07:16.401Z,1.58
2017-11-24T08:08:18.771Z,1.40
2017-11-24T08:09:20.085Z,1.70
2017-11-24T08:10:21.413Z,1.83
2017-11-24T08:11:22.774Z,1.62
2017-11-24T08:12:24.115Z,1.75
2017-11-24T08:13:25.773Z,1.80
2017-11-24T08:14:27.109Z,1.85
2017-11-24T08:15:28.468Z,2.00
2017-11-24T08:16:30.530Z,1.95
2017-11-24T08:17:32.603Z,2.10
2017-11-24T08:18:34.263Z,1.90
2017-11-24T08:19:35.622Z,1.58
2017-11-24T08:20:36.991Z,1.40
2017-11-24T08:21:38.346Z,1.83
2017-11-24T08:22:40.449Z,1.92
2017-11-24T08:23:42.191Z,1.73
2017-11-24T08:24:43.523Z,1.75
2017-11-24T08:25:44.907Z,1.60
2017-11-24T08:26:47.019Z,1.60
2017-11-24T08:27:48.365Z,1.60
2017-11-24T08:28:50.027Z,1.52
2017-11-24T08:29:51.390Z,2.00
2017-11-24T08:30:52.793Z,1.65
2017-11-24T08:31:54.121Z,1.90
2017-11-24T08:32:55.454Z,1.58
2017-11-24T08:33:57.116Z,1.50
2017-11-24T08:34:58.491Z,1.33
2017-11-24T08:35:59.818Z,1.25
2017-11-24T08:37:01.197Z,1.50
2017-11-24T08:38:02.589Z,1.50
2017-11-24T08:39:04.228Z,1.67
2017-11-24T08:40:05.543Z,1.55
2017-11-24T08:41:06.882Z,1.58
2017-11-24T08:42:08.219Z,1.50
2017-11-24T08:43:09.551Z,1.60
2017-11-24T08:44:11.147Z,2.20
2017-11-24T08:45:13.220Z,2.20
2017-11-24T08:46:31.138Z,2.20
2017-11-24T08:47:38.460Z,2.30
2017-11-24T08:48:45.675Z,1.87
2017-11-24T08:49:47.611Z,2.12
2017-11-24T08:50:48.937Z,2.60
2017-11-24T08:51:50.260Z,2.37
2017-11-24T08:52:51.575Z,2.15
2017-11-24T08:53:53.677Z,1.90
2017-11-24T08:54:55.049Z,2.05
2017-11-24T08:55:56.393Z,1.75
2017-11-24T08:56:58.467Z,1.80
2017-11-24T08:58:00.547Z,1.90
2017-11-24T08:59:01.862Z,1.77
2017-11-24T09:00:05.330Z,1.98
2017-11-24T09:01:14.328Z,1.90
2017-11-24T09:02:15.665Z,1.83
2017-11-24T09:03:17.007Z,1.95
2017-11-24T09:04:18.320Z,1.80
2017-11-24T09:05:19.963Z,1.58
2017-11-24T09:06:21.280Z,1.40
2017-11-24T09:07:22.581Z,1.50
2017-11-24T09:08:23.891Z,1.40
2017-11-24T09:09:25.241Z,1.60
2017-11-24T09:10:26.642Z,1.83
2017-11-24T09:11:28.007Z,1.48
2017-11-24T09:12:29.313Z,1.90
2017-11-24T09:13:30.638Z,1.80
2017-11-24T09:14:32.016Z,1.70
2017-11-24T09:15:33.630Z,1.60
2017-11-24T09:16:34.974Z,2.05
2017-11-24T09:17:36.329Z,1.80
2017-11-24T09:18:37.638Z,2.00
2017-11-24T09:19:38.940Z,2.10
2017-11-24T09:20:40.544Z,1.83
2017-11-24T09:21:41.881Z,1.70
2017-11-24T09:22:43.218Z,1.80
2017-11-24T09:23:44.538Z,1.50
2017-11-24T09:24:45.861Z,1.58
2017-11-24T09:25:47.979Z,1.30
2017-11-24T09:26:49.350Z,1.30
2017-11-24T09:27:51.482Z,1.30
2017-11-24T09:28:52.831Z,1.25
2017-11-24T09:29:54.972Z,1.40
2017-11-24T09:30:56.401Z,1.45
2017-11-24T09:31:57.731Z,1.50
2017-11-24T09:32:59.069Z,1.27
2017-11-24T09:34:00.444Z,1.40
2017-11-24T09:35:01.803Z,1.23
2017-11-24T09:36:04.328Z,1.20
2017-11-24T09:37:05.665Z,1.52
2017-11-24T09:38:07.799Z,1.23
2017-11-24T09:39:09.156Z,1.10
2017-11-24T09:40:10.506Z,1.67
2017-11-24T09:41:11.910Z,1.12
2017-11-24T09:42:13.224Z,1.60
2017-11-24T09:43:15.300Z,1.60
2017-11-24T09:44:16.635Z,1.20
2017-11-24T09:45:18.042Z,1.35
2017-11-24T09:46:20.147Z,1.30
2017-11-24T09:47:21.476Z,1.20
2017-11-24T09:48:22.823Z,1.58
2017-11-24T09:49:24.141Z,1.50
2017-11-24T09:50:25.476Z,1.40
2017-11-24T09:51:27.147Z,1.20
2017-11-24T09:52:28.517Z,1.25
2017-11-24T09:53:29.890Z,1.77
2017-11-24T09:54:31.987Z,1.20
2017-11-24T09:55:33.291Z,1.15
2017-11-24T09:56:34.966Z,1.10
2017-11-24T09:57:37.165Z,1.25
2017-11-24T09:58:38.538Z,1.20
2017-11-24T10:00:48.625Z,1.20
2017-11-24T10:01:50.266Z,1.50
2017-11-24T10:02:51.643Z,1.17
2017-11-24T10:03:53.700Z,1.40
2017-11-24T10:04:55.043Z,1.30
2017-11-24T10:05:57.093Z,1.50
2017-11-24T10:06:59.227Z,1.27
2017-11-24T10:08:00.581Z,1.40
2017-11-24T10:09:02.734Z,1.20
2017-11-24T10:10:04.073Z,1.30
2017-11-24T10:11:05.410Z,1.37
2017-11-24T10:12:06.776Z,1.70
2017-11-24T10:13:08.845Z,1.60
2017-11-24T10:14:10.193Z,1.37
2017-11-24T10:15:11.545Z,1.20
2017-11-24T10:16:12.909Z,1.33
2017-11-24T10:17:14.572Z,1.40
2017-11-24T10:18:15.902Z,1.33
2017-11-24T10:19:17.229Z,1.40
2017-11-24T10:20:18.577Z,1.40
2017-11-24T10:21:40.808Z,1.40
2017-11-24T10:22:42.528Z,1.33
2017-11-24T10:23:43.851Z,1.30
2017-11-24T10:24:45.187Z,1.20
2017-11-24T10:25:46.525Z,1.20
2017-11-24T10:26:47.838Z,1.50
2017-11-24T10:27:50.223Z,1.08
2017-11-24T10:28:51.541Z,1.23
2017-11-24T10:29:53.634Z,1.35
2017-11-24T10:30:54.954Z,1.25
2017-11-24T10:31:56.287Z,1.48
2017-11-24T10:32:57.673Z,1.30
2017-11-24T10:34:00.492Z,1.30
2017-11-24T10:35:01.855Z,1.30
2017-11-24T10:36:03.190Z,1.27
2017-11-24T10:37:04.558Z,1.20
2017-11-24T10:38:06.183Z,1.33
2017-11-24T10:39:07.530Z,1.20
2017-11-24T10:40:08.943Z,1.23
2017-11-24T10:41:10.297Z,1.30
2017-11-24T10:42:11.613Z,1.10
2017-11-24T10:43:13.292Z,1.40
2017-11-24T10:44:14.636Z,1.10
2017-11-24T10:45:16.728Z,1.27
2017-11-24T10:46:18.780Z,1.20
2017-11-24T10:47:20.101Z,1.60
2017-11-24T10:48:21.709Z,1.17
2017-11-24T10:49:23.036Z,1.35
2017-11-24T10:50:24.397Z,1.20
2017-11-24T10:51:25.749Z,1.50
2017-11-24T10:52:27.110Z,1.23
2017-11-24T10:53:28.485Z,1.55
2017-11-24T10:54:29.811Z,1.30
2017-11-24T10:55:31.159Z,1.65
2017-11-24T10:56:32.532Z,1.60
2017-11-24T10:57:33.888Z,1.37
2017-11-24T10:58:35.602Z,1.40
2017-11-24T10:59:36.939Z,1.40
2017-11-24T11:00:39.210Z,1.27
2017-11-24T11:01:40.540Z,1.50
2017-11-24T11:02:41.878Z,1.33
2017-11-24T11:03:43.242Z,1.10
2017-11-24T11:04:44.609Z,1.15
2017-11-24T11:05:46.670Z,1.50
2017-11-24T11:06:48.739Z,1.42
2017-11-24T11:07:50.088Z,1.40
2017-11-24T11:08:51.726Z,1.30
2017-11-24T11:09:53.045Z,1.45
2017-11-24T11:10:55.106Z,1.02
2017-11-24T11:11:57.169Z,1.20
2017-11-24T11:12:59.266Z,1.33
2017-11-24T11:14:00.897Z,1.30
2017-11-24T11:15:02.233Z,1.37
2017-11-24T11:16:03.576Z,1.25
2017-11-24T11:17:04.902Z,1.25
2017-11-24T11:18:06.252Z,1.35
2017-11-24T11:19:07.880Z,1.55
2017-11-24T11:20:09.281Z,1.17
2017-11-24T11:21:10.658Z,1.30
2017-11-24T11:22:11.982Z,1.50
2017-11-24T11:23:14.035Z,1.20
2017-11-24T11:24:16.130Z,1.40
2017-11-24T11:25:17.463Z,1.40
2017-11-24T11:26:18.824Z,1.30
2017-11-24T11:27:20.141Z,1.50
2017-11-24T11:28:21.485Z,1.40
2017-11-24T11:29:22.865Z,1.27
2017-11-24T11:30:24.229Z,1.40
2017-11-24T11:31:26.294Z,1.58
2017-11-24T11:32:27.657Z,1.48
2017-11-24T11:33:29.018Z,1.48
2017-11-24T11:34:30.952Z,1.48
2017-11-24T11:35:32.295Z,1.25
2017-11-24T11:36:34.428Z,1.37
2017-11-24T11:37:35.811Z,1.30
2017-11-24T11:38:37.166Z,1.30
2017-11-24T11:39:38.673Z,1.40
2017-11-24T11:40:40.015Z,1.50
2017-11-24T11:41:41.338Z,1.42
2017-11-24T11:42:42.661Z,1.50
2017-11-24T11:43:44.033Z,1.50
2017-11-24T11:44:45.448Z,1.35
2017-11-24T11:45:46.829Z,1.20
2017-11-24T11:46:48.210Z,1.17
2017-11-24T11:47:49.597Z,1.60
2017-11-24T11:48:50.998Z,1.33
2017-11-24T11:49:52.361Z,1.27
2017-11-24T11:50:53.694Z,1.30
2017-11-24T11:51:55.067Z,1.30
2017-11-24T11:52:56.420Z,1.33
2017-11-24T11:53:58.560Z,1.40
2017-11-24T11:55:00.226Z,1.20
2017-11-24T11:56:02.309Z,1.30
2017-11-24T11:57:03.654Z,1.20
2017-11-24T11:58:05.025Z,1.48
2017-11-24T11:59:06.423Z,1.30
2017-11-24T12:00:08.102Z,1.60
2017-11-24T12:01:09.467Z,1.75
2017-11-24T12:02:10.830Z,1.60
2017-11-24T12:03:12.879Z,1.48
2017-11-24T12:04:14.971Z,1.65
2017-11-24T12:05:16.503Z,1.23
2017-11-24T12:06:17.856Z,1.08
2017-11-24T12:07:19.221Z,1.23
2017-11-24T12:08:20.569Z,1.65
2017-11-24T12:09:21.921Z,1.37
2017-11-24T12:10:23.730Z,1.10
2017-11-24T12:11:25.058Z,1.12
2017-11-24T12:12:26.367Z,1.45
2017-11-24T12:13:28.417Z,1.50
2017-11-24T12:14:30.474Z,1.30
2017-11-24T12:15:32.621Z,1.20
2017-11-24T12:16:33.927Z,1.17
2017-11-24T12:17:35.255Z,1.30
2017-11-24T12:18:36.591Z,1.20
2017-11-24T12:19:37.914Z,1.37
2017-11-24T12:20:39.531Z,1.20
2017-11-24T12:21:41.602Z,1.37
2017-11-24T12:22:42.913Z,1.30
2017-11-24T12:23:44.224Z,1.30
2017-11-24T12:24:45.541Z,1.30
2017-11-24T12:25:46.897Z,1.48
2017-11-24T12:26:48.254Z,1.40
2017-11-24T12:27:49.562Z,1.33
2017-11-24T12:28:50.897Z,1.52
2017-11-24T12:29:52.223Z,1.35
2017-11-24T12:30:53.933Z,1.50
2017-11-24T12:31:55.998Z,1.45
2017-11-24T12:32:58.147Z,1.45
2017-11-24T12:34:00.258Z,1.60
2017-11-24T12:35:01.610Z,1.60
2017-11-24T12:36:03.018Z,1.67
2017-11-24T12:37:04.377Z,1.80
2017-11-24T12:38:05.692Z,1.55
2017-11-24T12:39:07.027Z,1.90
2017-11-24T12:40:08.332Z,1.58
2017-11-24T12:41:09.955Z,2.00
2017-11-24T12:42:11.272Z,1.87
2017-11-24T12:43:12.616Z,1.42
2017-11-24T12:44:13.929Z,1.70
2017-11-24T12:45:15.249Z,1.37
2017-11-24T12:46:16.827Z,1.30
2017-11-24T12:47:18.149Z,1.37
2017-11-24T12:48:19.481Z,1.60
2017-11-24T12:49:20.797Z,1.58
2017-11-24T12:50:22.837Z,1.90
2017-11-24T12:51:24.936Z,1.60
2017-11-24T12:52:26.249Z,1.40
2017-11-24T12:53:27.585Z,1.30
2017-11-24T12:54:29.666Z,1.50
2017-11-24T12:55:30.962Z,1.67
2017-11-24T12:56:33.176Z,1.70
2017-11-24T12:57:34.500Z,1.40
2017-11-24T12:58:35.850Z,1.70
2017-11-24T12:59:37.317Z,1.58
2017-11-24T13:00:38.642Z,1.70
2017-11-24T13:01:40.291Z,1.62
2017-11-24T13:02:41.590Z,1.50
2017-11-24T13:03:42.927Z,1.45
2017-11-24T13:04:44.275Z,1.52
2017-11-24T13:05:45.604Z,1.70
2017-11-24T13:06:47.269Z,2.30
2017-11-24T13:07:48.589Z,2.37
2017-11-24T13:08:49.905Z,2.12
2017-11-24T13:09:51.979Z,2.42
2017-11-24T13:10:54.061Z,2.20
2017-11-24T13:11:55.714Z,1.67
2017-11-24T13:12:57.042Z,1.50
2017-11-24T13:13:58.389Z,1.70
2017-11-24T13:15:00.043Z,1.55
2017-11-24T13:16:01.380Z,1.45
2017-11-24T13:17:02.776Z,1.85
2017-11-24T13:18:04.104Z,2.12
2017-11-24T13:19:06.153Z,1.55
2017-11-24T13:20:08.291Z,2.10
2017-11-24T13:21:09.667Z,2.10
2017-11-24T13:22:11.447Z,2.05
2017-11-24T13:23:12.760Z,1.62
2017-11-24T13:24:14.120Z,1.90
2017-11-24T13:25:15.435Z,1.90
2017-11-24T13:26:16.766Z,1.90
2017-11-24T13:27:18.145Z,2.50
2017-11-24T13:28:19.502Z,2.40
2017-11-24T13:29:20.837Z,2.62
2017-11-24T13:30:22.219Z,3.15
2017-11-24T13:31:23.542Z,2.45
2017-11-24T13:32:25.668Z,2.78
2017-11-24T13:33:26.990Z,2.35
2017-11-24T13:34:28.324Z,2.20
2017-11-24T13:35:29.688Z,2.03
2017-11-24T13:36:31.007Z,2.15
2017-11-24T13:37:32.386Z,2.20
2017-11-24T13:38:34.455Z,2.53
2017-11-24T13:39:35.847Z,1.85
2017-11-24T13:40:37.156Z,2.35
2017-11-24T13:41:38.520Z,2.30
2017-11-24T13:42:40.133Z,2.80